createdAt,value
2019-02-17T00:00:01.263Z,1.40
2019-02-17T00:02:29.898Z,1.40
2019-02-17T00:04:58.383Z,1.40
2019-02-17T00:07:26.849Z,1.30
2019-02-17T00:09:55.435Z,1.30
2019-02-17T00:12:23.894Z,1.20
2019-02-17T00:14:52.387Z,1.20
2019-02-17T00:17:21.098Z,1.20
2019-02-17T00:19:49.586Z,1.20
2019-02-17T00:22:18.059Z,1.20
2019-02-17T00:24:46.623Z,1.20
2019-02-17T00:27:15.079Z,1.30
2019-02-17T00:29:43.583Z,1.20
2019-02-17T00:32:12.046Z,1.20
2019-02-17T00:34:40.509Z,1.10
2019-02-17T00:37:09.030Z,1.10
2019-02-17T00:39:37.499Z,1.10
2019-02-17T00:42:06.080Z,1.10
2019-02-17T00:44:34.626Z,1.10
2019-02-17T00:47:03.183Z,1.10
2019-02-17T00:49:31.722Z,1.00
2019-02-17T00:52:00.227Z,1.00
2019-02-17T00:54:28.703Z,1.00
2019-02-17T00:56:57.237Z,1.00
2019-02-17T00:59:25.730Z,1.00
2019-02-17T01:01:54.298Z,0.90
2019-02-17T01:04:22.762Z,1.00
2019-02-17T01:06:51.299Z,1.00
2019-02-17T01:09:19.783Z,1.00
2019-02-17T01:11:48.274Z,1.00
2019-02-17T01:14:17.151Z,1.00
2019-02-17T01:16:45.620Z,0.90
2019-02-17T01:19:14.159Z,0.90
2019-02-17T01:21:42.727Z,0.90
2019-02-17T01:24:11.196Z,0.90
2019-02-17T01:26:39.737Z,0.90
2019-02-17T01:29:08.299Z,0.80
2019-02-17T01:31:36.767Z,0.90
2019-02-17T01:34:10.318Z,0.80
2019-02-17T01:36:59.658Z,0.90
2019-02-17T01:39:28.214Z,0.90
2019-02-17T01:41:56.678Z,0.90
2019-02-17T01:44:25.182Z,0.90
2019-02-17T01:46:53.792Z,0.90
2019-02-17T01:49:22.395Z,0.90
2019-02-17T01:51:50.959Z,0.90
2019-02-17T01:54:19.423Z,0.90
2019-02-17T01:56:47.910Z,0.80
2019-02-17T01:59:16.388Z,0.80
2019-02-17T02:01:48.044Z,0.70
2019-02-17T02:04:16.588Z,0.80
2019-02-17T02:06:45.050Z,0.90
2019-02-17T02:09:13.610Z,1.00
2019-02-17T02:11:42.162Z,0.90
2019-02-17T02:14:10.670Z,0.90
2019-02-17T02:16:39.137Z,0.80
2019-02-17T02:19:07.671Z,0.80
2019-02-17T02:21:36.175Z,0.80
2019-02-17T02:24:04.643Z,0.90
2019-02-17T02:26:33.137Z,0.90
2019-02-17T02:29:01.728Z,0.90
2019-02-17T02:31:30.215Z,1.00
2019-02-17T02:33:58.678Z,0.90
2019-02-17T02:36:27.168Z,0.80
2019-02-17T02:38:55.639Z,0.70
2019-02-17T02:41:34.229Z,0.60
2019-02-17T02:43:54.447Z,0.50
2019-02-17T02:46:22.916Z,0.50
2019-02-17T02:48:51.447Z,0.50
2019-02-17T02:51:22.578Z,0.50
2019-02-17T02:53:51.043Z,0.50
2019-02-17T02:56:19.548Z,0.50
2019-02-17T02:58:48.084Z,0.50
2019-02-17T03:01:16.691Z,0.50
2019-02-17T03:03:46.137Z,0.50
2019-02-17T03:06:16.447Z,0.50
2019-02-17T03:08:45.076Z,0.50
2019-02-17T03:11:13.549Z,0.40
2019-02-17T03:13:42.040Z,0.30
2019-02-17T03:16:10.506Z,0.20
2019-02-17T03:18:39.075Z,0.20
2019-02-17T03:21:07.667Z,0.10
2019-02-17T03:23:36.212Z,0.20
2019-02-17T03:26:04.773Z,0.10
2019-02-17T03:28:33.350Z,0.10
2019-02-17T03:31:01.849Z,0.10
2019-02-17T03:33:30.356Z,0.00
2019-02-17T03:36:18.259Z,0.00
2019-02-17T03:38:46.724Z,0.00
2019-02-17T03:41:15.300Z,0.00
2019-02-17T03:43:43.784Z,0.00
2019-02-17T03:46:12.308Z,0.00
2019-02-17T03:48:40.840Z,0.10
2019-02-17T03:51:09.335Z,0.10
2019-02-17T03:53:37.877Z,0.20
2019-02-17T03:56:06.443Z,0.30
2019-02-17T03:58:34.906Z,0.40
2019-02-17T04:01:03.490Z,0.40
2019-02-17T04:03:31.954Z,0.40
2019-02-17T04:06:00.493Z,0.30
2019-02-17T04:08:29.046Z,0.20
2019-02-17T04:11:00.431Z,0.20
2019-02-17T04:13:29.087Z,0.20
2019-02-17T04:15:57.633Z,0.10
2019-02-17T04:18:26.203Z,0.10
2019-02-17T04:20:54.766Z,0.00
2019-02-17T04:23:42.599Z,0.10
2019-02-17T04:26:11.081Z,0.10
2019-02-17T04:28:39.636Z,0.10
2019-02-17T04:31:08.256Z,0.10
2019-02-17T04:33:36.795Z,0.10
2019-02-17T04:36:05.297Z,0.10
2019-02-17T04:38:33.850Z,0.10
2019-02-17T04:41:02.338Z,0.10
2019-02-17T04:43:30.806Z,0.10
2019-02-17T04:45:59.307Z,0.20
2019-02-17T04:48:27.890Z,0.20
2019-02-17T04:50:56.355Z,0.20
2019-02-17T04:53:24.963Z,0.30
2019-02-17T04:55:53.456Z,0.30
2019-02-17T04:58:21.944Z,0.40
2019-02-17T05:00:50.483Z,0.40
2019-02-17T05:03:19.043Z,0.40
2019-02-17T05:05:47.510Z,0.50
2019-02-17T05:08:15.986Z,0.50
2019-02-17T05:10:44.481Z,0.60
2019-02-17T05:13:13.111Z,0.50
2019-02-17T05:15:41.706Z,0.50
2019-02-17T05:18:10.178Z,0.50
2019-02-17T05:20:38.674Z,0.50
2019-02-17T05:23:07.214Z,0.50
2019-02-17T05:25:35.784Z,0.50
2019-02-17T05:28:04.254Z,0.50
2019-02-17T05:30:32.739Z,0.50
2019-02-17T05:33:01.374Z,0.60
2019-02-17T05:35:29.883Z,0.60
2019-02-17T05:37:58.433Z,0.60
2019-02-17T05:40:26.975Z,0.60
2019-02-17T05:42:55.471Z,0.60
2019-02-17T05:45:23.940Z,0.60
2019-02-17T05:47:52.431Z,0.60
2019-02-17T05:50:20.976Z,0.60
2019-02-17T05:52:49.581Z,0.50
2019-02-17T05:55:18.123Z,0.50
2019-02-17T05:57:46.587Z,0.50
2019-02-17T06:00:16.552Z,0.50
2019-02-17T06:02:45.122Z,0.50
2019-02-17T06:05:13.799Z,0.40
2019-02-17T06:07:42.291Z,0.40
2019-02-17T06:10:10.858Z,0.40
2019-02-17T06:12:39.494Z,0.40
2019-02-17T06:15:08.207Z,0.40
2019-02-17T06:17:36.734Z,0.40
2019-02-17T06:20:08.681Z,0.40
2019-02-17T06:22:37.151Z,0.40
2019-02-17T06:25:06.060Z,0.40
2019-02-17T06:27:34.556Z,0.40
2019-02-17T06:30:03.532Z,0.40
2019-02-17T06:32:32.082Z,0.40
2019-02-17T06:35:00.575Z,0.40
2019-02-17T06:37:29.075Z,0.40
2019-02-17T06:39:57.543Z,0.30
2019-02-17T06:42:26.047Z,0.30
2019-02-17T06:44:54.594Z,0.30
2019-02-17T06:47:24.803Z,0.30
2019-02-17T06:49:53.442Z,0.30
2019-02-17T06:52:21.995Z,0.30
2019-02-17T06:54:52.198Z,0.30
2019-02-17T06:57:22.379Z,0.30
2019-02-17T06:59:52.519Z,0.30
2019-02-17T07:02:20.979Z,0.30
2019-02-17T07:05:06.186Z,0.40
2019-02-17T07:07:34.715Z,0.40
2019-02-17T07:10:03.191Z,0.50
2019-02-17T07:12:31.683Z,0.60
2019-02-17T07:15:00.298Z,0.70
2019-02-17T07:17:28.914Z,0.80
2019-02-17T07:19:57.403Z,0.90
2019-02-17T07:22:25.866Z,1.00
2019-02-17T07:24:54.375Z,1.20
2019-02-17T07:27:22.913Z,1.40
2019-02-17T07:29:51.455Z,1.60
2019-02-17T07:32:19.977Z,1.90
2019-02-17T07:34:48.520Z,2.10
2019-02-17T07:37:19.298Z,2.30
2019-02-17T07:39:47.263Z,2.60
2019-02-17T07:42:15.755Z,2.70
2019-02-17T07:44:44.254Z,2.70
2019-02-17T07:47:12.815Z,2.80
2019-02-17T07:49:41.303Z,3.00
2019-02-17T07:52:09.768Z,3.10
2019-02-17T07:54:38.258Z,3.20
2019-02-17T07:57:06.738Z,3.20
2019-02-17T07:59:35.239Z,3.40
2019-02-17T08:02:03.855Z,3.70
2019-02-17T08:04:32.328Z,4.10
2019-02-17T08:07:00.818Z,4.70
2019-02-17T08:09:29.381Z,5.10
2019-02-17T08:11:57.842Z,5.30
2019-02-17T08:14:26.403Z,5.60
2019-02-17T08:16:54.873Z,6.00
2019-02-17T08:19:23.453Z,6.70
2019-02-17T08:21:51.979Z,7.40
2019-02-17T08:24:20.562Z,7.80
2019-02-17T08:26:49.035Z,8.40
2019-02-17T08:29:17.570Z,8.90
2019-02-17T08:31:55.493Z,9.20
2019-02-17T08:34:16.269Z,9.50
2019-02-17T08:36:44.910Z,9.80
2019-02-17T08:39:13.386Z,10.00
2019-02-17T08:41:42.021Z,10.50
2019-02-17T08:44:10.564Z,10.90
2019-02-17T08:46:39.201Z,11.40
2019-02-17T08:49:07.695Z,11.70
2019-02-17T08:51:36.266Z,12.10
2019-02-17T08:54:04.809Z,12.50
2019-02-17T08:56:33.375Z,12.60
2019-02-17T08:59:01.870Z,12.70
2019-02-17T09:01:30.338Z,12.80
2019-02-17T09:03:58.858Z,12.70
2019-02-17T09:06:27.330Z,12.70
2019-02-17T09:08:55.830Z,12.50
2019-02-17T09:11:24.392Z,12.40
2019-02-17T09:13:52.959Z,12.80
2019-02-17T09:16:21.508Z,13.40
2019-02-17T09:18:49.974Z,13.90
2019-02-17T09:21:18.468Z,14.60
2019-02-17T09:23:47.022Z,15.10
2019-02-17T09:26:15.606Z,15.50
2019-02-17T09:28:44.075Z,16.00
2019-02-17T09:31:12.567Z,16.30
2019-02-17T09:33:41.039Z,16.40
2019-02-17T09:36:09.531Z,16.60
2019-02-17T09:38:38.027Z,17.00
2019-02-17T09:41:06.519Z,17.20
2019-02-17T09:43:34.993Z,17.20
2019-02-17T09:46:03.538Z,17.50
2019-02-17T09:48:32.050Z,17.80
2019-02-17T09:51:00.514Z,17.40
2019-02-17T09:53:28.987Z,17.30
2019-02-17T09:55:58.156Z,17.30
2019-02-17T09:58:26.722Z,17.20
2019-02-17T10:00:55.194Z,17.50
2019-02-17T10:03:23.706Z,17.70
2019-02-17T10:05:52.177Z,18.00
2019-02-17T10:08:20.883Z,17.90
2019-02-17T10:10:49.378Z,17.80
2019-02-17T10:13:17.950Z,18.20
2019-02-17T10:15:46.596Z,18.80
2019-02-17T10:18:15.166Z,18.90
2019-02-17T10:20:43.706Z,19.20
2019-02-17T10:23:12.203Z,19.20
2019-02-17T10:25:40.742Z,19.30
2019-02-17T10:28:09.234Z,19.20
2019-02-17T10:30:37.835Z,20.00
2019-02-17T10:33:06.316Z,19.70
2019-02-17T10:35:34.882Z,20.10
2019-02-17T10:38:03.458Z,20.80
2019-02-17T10:40:31.931Z,21.00
2019-02-17T10:43:00.578Z,21.20
2019-02-17T10:45:29.158Z,20.90
2019-02-17T10:47:57.652Z,21.10
2019-02-17T10:50:26.163Z,21.10
2019-02-17T10:52:54.631Z,20.80
2019-02-17T10:55:23.119Z,20.90
2019-02-17T10:57:51.662Z,20.90
2019-02-17T11:00:22.349Z,20.70
2019-02-17T11:02:50.981Z,20.60
2019-02-17T11:05:19.567Z,20.40
2019-02-17T11:07:55.784Z,19.50
2019-02-17T11:10:24.647Z,18.70
2019-02-17T11:12:53.576Z,18.60
2019-02-17T11:15:22.642Z,18.90
2019-02-17T11:17:51.214Z,18.90
2019-02-17T11:20:19.682Z,18.80
2019-02-17T11:22:48.179Z,18.70
2019-02-17T11:25:16.649Z,18.20
2019-02-17T11:27:45.240Z,18.00
2019-02-17T11:30:16.804Z,17.30
2019-02-17T11:32:45.378Z,16.10
2019-02-17T11:35:14.176Z,15.10
2019-02-17T11:37:44.998Z,14.60
2019-02-17T11:40:13.430Z,14.30
2019-02-17T11:42:42.250Z,14.10
2019-02-17T11:45:18.463Z,13.60
2019-02-17T11:47:47.748Z,13.20
2019-02-17T11:50:16.313Z,12.90
2019-02-17T11:52:44.856Z,12.80
2019-02-17T11:55:15.560Z,12.90
2019-02-17T11:57:44.031Z,13.10
2019-02-17T12:00:18.856Z,13.10
2019-02-17T12:02:47.441Z,13.10
2019-02-17T12:05:16.167Z,12.90
2019-02-17T12:07:44.778Z,12.80
2019-02-17T12:10:13.395Z,12.70
2019-02-17T12:12:41.999Z,12.90
2019-02-17T12:15:12.832Z,13.00
2019-02-17T12:17:41.516Z,12.90
2019-02-17T12:20:17.190Z,12.70
2019-02-17T12:22:46.175Z,12.30
2019-02-17T12:25:14.671Z,12.20
2019-02-17T12:27:44.907Z,12.30
2019-02-17T12:30:13.914Z,12.40
2019-02-17T12:32:42.383Z,12.30
2019-02-17T12:35:10.872Z,12.20
2019-02-17T12:37:39.370Z,12.30
2019-02-17T12:40:10.456Z,12.50
2019-02-17T12:42:38.963Z,12.50
2019-02-17T12:45:10.447Z,12.40
2019-02-17T12:47:38.979Z,12.40
2019-02-17T12:50:10.311Z,12.40
2019-02-17T12:52:46.826Z,12.20
2019-02-17T12:55:09.654Z,12.30
2019-02-17T12:57:38.154Z,12.40
2019-02-17T13:00:13.055Z,12.40
2019-02-17T13:02:41.523Z,12.60
2019-02-17T13:05:10.656Z,12.80
2019-02-17T13:07:39.199Z,12.70
2019-02-17T13:10:11.762Z,12.70
2019-02-17T13:12:40.312Z,12.70
2019-02-17T13:15:11.516Z,12.70
2019-02-17T13:17:40.062Z,12.80
2019-02-17T13:20:16.327Z,12.90
2019-02-17T13:22:44.872Z,12.80
2019-02-17T13:25:15.623Z,12.70
2019-02-17T13:27:44.182Z,12.70
2019-02-17T13:30:18.428Z,12.70
2019-02-17T13:32:47.124Z,12.70
2019-02-17T13:35:15.706Z,12.70
2019-02-17T13:37:44.299Z,12.80
2019-02-17T13:40:14.083Z,12.90
2019-02-17T13:42:42.735Z,13.00
2019-02-17T13:45:18.315Z,12.90
2019-02-17T13:47:47.032Z,13.00
2019-02-17T13:50:18.527Z,13.00
2019-02-17T13:52:47.024Z,13.10
2019-02-17T13:55:15.587Z,13.00
2019-02-17T13:57:44.059Z,13.00
2019-02-17T14:00:14.968Z,12.90
2019-02-17T14:02:43.434Z,13.00
2019-02-17T14:05:12.003Z,12.90
2019-02-17T14:07:40.471Z,12.90
2019-02-17T14:10:13.631Z,12.80
2019-02-17T14:12:42.282Z,12.90
2019-02-17T14:15:18.750Z,13.00
2019-02-17T14:17:47.232Z,13.10
2019-02-17T14:20:15.774Z,13.20
2019-02-17T14:22:44.262Z,13.30
2019-02-17T14:25:12.871Z,13.40
2019-02-17T14:27:41.527Z,13.40
2019-02-17T14:30:18.539Z,13.20
2019-02-17T14:32:47.039Z,13.20
2019-02-17T14:35:15.507Z,13.10
2019-02-17T14:37:44.056Z,13.30
2019-02-17T14:40:13.661Z,13.30
2019-02-17T14:42:42.338Z,13.30
2019-02-17T14:45:12.474Z,13.40
2019-02-17T14:47:40.948Z,13.40
2019-02-17T14:50:11.242Z,13.30
2019-02-17T14:52:39.863Z,13.30
2019-02-17T14:55:09.852Z,13.20
2019-02-17T14:57:38.318Z,13.20
2019-02-17T15:00:14.879Z,13.10
2019-02-17T15:02:43.429Z,13.10
2019-02-17T15:05:12.110Z,12.90
2019-02-17T15:07:40.605Z,12.90
2019-02-17T15:10:10.990Z,12.90
2019-02-17T15:12:39.749Z,12.90
2019-02-17T15:15:10.832Z,12.90
2019-02-17T15:17:39.383Z,12.90
2019-02-17T15:20:13.198Z,13.00
2019-02-17T15:22:41.826Z,12.90
2019-02-17T15:25:12.046Z,12.90
2019-02-17T15:27:40.615Z,12.90
2019-02-17T15:30:14.208Z,12.90
2019-02-17T15:32:42.794Z,12.80
2019-02-17T15:35:11.499Z,12.80
2019-02-17T15:37:39.988Z,12.70
2019-02-17T15:40:15.211Z,12.70
2019-02-17T15:42:43.711Z,12.70
2019-02-17T15:45:13.458Z,12.60
2019-02-17T15:47:41.936Z,12.50
2019-02-17T15:50:14.770Z,12.50
2019-02-17T15:52:43.423Z,12.40
2019-02-17T15:55:13.206Z,12.40
2019-02-17T15:57:41.822Z,12.20
2019-02-17T16:00:16.200Z,12.10
2019-02-17T16:02:44.776Z,12.10
2019-02-17T16:05:13.499Z,12.00
2019-02-17T16:07:41.988Z,11.90
2019-02-17T16:10:12.848Z,11.90
2019-02-17T16:12:41.494Z,11.80
2019-02-17T16:15:18.839Z,11.70
2019-02-17T16:17:47.417Z,11.60
2019-02-17T16:20:15.958Z,11.50
2019-02-17T16:22:44.476Z,11.40
2019-02-17T16:25:13.187Z,11.30
2019-02-17T16:27:41.758Z,11.20
2019-02-17T16:30:18.446Z,11.10
2019-02-17T16:32:47.014Z,11.00
2019-02-17T16:35:15.559Z,10.80
2019-02-17T16:37:44.227Z,10.60
2019-02-17T16:40:19.287Z,10.50
2019-02-17T16:42:48.052Z,10.30
2019-02-17T16:45:16.607Z,10.20
2019-02-17T16:47:45.714Z,10.10
2019-02-17T16:50:26.038Z,9.90
2019-02-17T16:52:54.547Z,9.80
2019-02-17T16:55:23.167Z,9.70
2019-02-17T16:57:51.758Z,9.50
2019-02-17T17:00:23.955Z,9.40
2019-02-17T17:02:57.044Z,9.30
2019-02-17T17:05:26.089Z,9.20
2019-02-17T17:07:54.693Z,9.10
2019-02-17T17:10:23.371Z,9.10
2019-02-17T17:12:51.938Z,9.20
2019-02-17T17:15:20.737Z,9.30
2019-02-17T17:17:49.422Z,9.30
2019-02-17T17:20:19.628Z,9.30
2019-02-17T17:22:48.377Z,9.30
2019-02-17T17:25:17.054Z,9.10
2019-02-17T17:27:45.614Z,8.90
2019-02-17T17:30:18.372Z,8.80
2019-02-17T17:32:47.080Z,8.70
2019-02-17T17:35:15.695Z,8.60
2019-02-17T17:37:44.251Z,8.50
2019-02-17T17:40:19.072Z,8.30
2019-02-17T17:42:48.022Z,8.10
2019-02-17T17:45:18.196Z,8.00
2019-02-17T17:47:46.738Z,7.90
2019-02-17T17:50:16.239Z,7.70
2019-02-17T17:52:44.711Z,7.70
2019-02-17T17:55:13.866Z,7.60
2019-02-17T17:57:42.402Z,7.60
2019-02-17T18:00:26.100Z,7.50
2019-02-17T18:02:54.776Z,7.30
2019-02-17T18:05:23.324Z,7.20
2019-02-17T18:07:51.815Z,7.10
2019-02-17T18:10:20.309Z,7.00
2019-02-17T18:12:48.806Z,7.00
2019-02-17T18:15:19.679Z,7.00
2019-02-17T18:17:54.307Z,7.00
2019-02-17T18:20:18.426Z,7.00
2019-02-17T18:22:47.067Z,7.10
2019-02-17T18:25:16.094Z,7.10
2019-02-17T18:27:44.627Z,7.10
2019-02-17T18:30:16.578Z,7.10
2019-02-17T18:32:45.590Z,7.00
2019-02-17T18:35:19.690Z,6.90
2019-02-17T18:37:44.658Z,6.70
2019-02-17T18:40:17.570Z,6.60
2019-02-17T18:42:46.934Z,6.50
2019-02-17T18:45:16.366Z,6.30
2019-02-17T18:47:44.932Z,6.30
2019-02-17T18:50:15.913Z,6.20
2019-02-17T18:52:44.451Z,6.00
2019-02-17T18:55:14.062Z,5.90
2019-02-17T18:57:49.377Z,5.90
2019-02-17T19:00:24.015Z,5.80
2019-02-17T19:02:52.618Z,5.80
2019-02-17T19:05:31.096Z,5.70
2019-02-17T19:07:51.434Z,5.60
2019-02-17T19:10:19.978Z,5.50
2019-02-17T19:12:48.607Z,5.40
2019-02-17T19:15:21.642Z,5.30
2019-02-17T19:17:50.200Z,5.20
2019-02-17T19:20:36.732Z,5.20
2019-02-17T19:23:05.274Z,5.10
2019-02-17T19:25:33.855Z,5.20
2019-02-17T19:28:03.744Z,5.30
2019-02-17T19:30:32.452Z,5.30
2019-02-17T19:33:00.926Z,5.20
2019-02-17T19:35:29.507Z,5.10
2019-02-17T19:37:58.107Z,5.00
2019-02-17T19:40:26.672Z,4.90
2019-02-17T19:42:55.215Z,4.80
2019-02-17T19:45:23.711Z,4.80
2019-02-17T19:47:52.255Z,4.70
2019-02-17T19:50:20.814Z,4.50
2019-02-17T19:52:49.455Z,4.40
2019-02-17T19:55:17.963Z,4.30
2019-02-17T19:57:46.502Z,4.30
2019-02-17T20:00:17.230Z,4.30
2019-02-17T20:02:56.210Z,4.30
2019-02-17T20:05:38.623Z,4.10
2019-02-17T20:08:07.220Z,4.00
2019-02-17T20:10:35.753Z,4.00
2019-02-17T20:13:04.331Z,3.90
2019-02-17T20:15:34.274Z,3.80
2019-02-17T20:18:02.763Z,3.70
2019-02-17T20:20:31.231Z,3.60
2019-02-17T20:22:59.791Z,3.60
2019-02-17T20:25:28.399Z,3.60
2019-02-17T20:27:56.972Z,3.50
2019-02-17T20:30:25.455Z,3.40
2019-02-17T20:32:53.961Z,3.40
2019-02-17T20:35:22.421Z,3.30
2019-02-17T20:37:51.007Z,3.30
2019-02-17T20:40:19.689Z,3.20
2019-02-17T20:42:48.235Z,3.10
2019-02-17T20:45:16.735Z,3.10
2019-02-17T20:47:45.273Z,3.00
2019-02-17T20:50:15.993Z,3.00
2019-02-17T20:52:44.595Z,3.00
2019-02-17T20:55:13.599Z,3.00
2019-02-17T20:57:42.239Z,3.00
2019-02-17T21:00:22.553Z,2.90
2019-02-17T21:02:50.976Z,2.90
2019-02-17T21:05:19.534Z,2.90
2019-02-17T21:07:48.093Z,2.80
2019-02-17T21:10:16.635Z,2.80
2019-02-17T21:12:45.289Z,2.80
2019-02-17T21:15:16.243Z,2.80
2019-02-17T21:17:44.846Z,2.70
2019-02-17T21:20:13.703Z,2.70
2019-02-17T21:22:42.267Z,2.60
2019-02-17T21:25:12.347Z,2.70
2019-02-17T21:27:40.886Z,2.70
2019-02-17T21:30:15.402Z,2.80
2019-02-17T21:32:43.951Z,2.80
2019-02-17T21:35:14.128Z,2.60
2019-02-17T21:37:42.758Z,2.50
2019-02-17T21:40:12.382Z,2.40
2019-02-17T21:42:40.870Z,2.30
2019-02-17T21:45:11.300Z,2.20
2019-02-17T21:47:39.875Z,2.20
2019-02-17T21:50:10.701Z,2.10
2019-02-17T21:52:41.652Z,2.10
2019-02-17T21:55:11.686Z,2.10
2019-02-17T21:57:40.223Z,2.00
2019-02-17T22:00:17.934Z,2.00
2019-02-17T22:02:46.511Z,1.90
2019-02-17T22:05:15.235Z,1.90
2019-02-17T22:07:43.763Z,1.90
2019-02-17T22:10:14.421Z,1.90
2019-02-17T22:12:43.094Z,1.90
2019-02-17T22:15:16.815Z,1.80
2019-02-17T22:17:45.318Z,1.80
2019-02-17T22:20:14.198Z,1.80
2019-02-17T22:22:42.678Z,1.70
2019-02-17T22:25:11.415Z,1.70
2019-02-17T22:27:39.878Z,1.60
2019-02-17T22:30:16.262Z,1.60
2019-02-17T22:32:44.831Z,1.50
2019-02-17T22:35:13.434Z,1.50
2019-02-17T22:37:42.073Z,1.50
2019-02-17T22:40:14.736Z,1.50
2019-02-17T22:42:43.306Z,1.50
2019-02-17T22:45:12.699Z,1.50
2019-02-17T22:47:41.171Z,1.60
2019-02-17T22:50:14.287Z,1.60
2019-02-17T22:52:44.165Z,1.60
2019-02-17T22:55:13.779Z,1.60
2019-02-17T22:57:42.379Z,1.60
2019-02-17T23:00:23.187Z,1.60
2019-02-17T23:02:51.732Z,1.60
2019-02-17T23:05:20.290Z,1.60
2019-02-17T23:07:48.785Z,1.60
2019-02-17T23:10:17.355Z,1.60
2019-02-17T23:12:45.824Z,1.60
2019-02-17T23:15:14.363Z,1.60
2019-02-17T23:17:42.919Z,1.60
2019-02-17T23:20:11.529Z,1.50
2019-02-17T23:22:40.164Z,1.40
2019-02-17T23:25:09.762Z,1.40
2019-02-17T23:27:38.265Z,1.40
2019-02-17T23:30:09.111Z,1.40
2019-02-17T23:32:37.603Z,1.30
2019-02-17T23:35:08.455Z,1.30
2019-02-17T23:37:36.950Z,1.30
2019-02-17T23:40:08.222Z,1.30
2019-02-17T23:42:36.796Z,1.30
2019-02-17T23:45:07.934Z,1.30
2019-02-17T23:47:36.461Z,1.30
2019-02-17T23:50:06.726Z,1.30
2019-02-17T23:52:35.307Z,1.30
2019-02-17T23:55:04.511Z,1.30
2019-02-17T23:57:33.074Z,1.30
